Time;durP1;ratioP1;P1;durP2;ratioP2;P2;SDS_P1;SDS_P2;PMS_P1;PMS_P2;Temp;Humidity;BMP_temperature;BMP_pressure;BME280_temperature;BME280_humidity;BME280_pressure;Samples;Min_cycle;Max_cycle;Signal;HPM_P1;HPM_P2
2023/12/11 00:00:14;;;;;;;;;1.00;1.00;;;;;11.37;79.17;98266.00;5057382;28;8850;-90
2023/12/11 00:02:43;;;;;;;;;2.00;2.00;;;;;11.35;79.16;98262.66;5057320;28;8835;-89
2023/12/11 00:05:13;;;;;;;;;1.00;0.00;;;;;11.32;79.71;98266.50;5058040;28;8869;-90
2023/12/11 00:07:41;;;;;;;;;0.75;0.75;;;;;11.31;79.35;98269.34;5048515;28;8841;-90
2023/12/11 00:10:08;;;;;;;;;0.50;0.50;;;;;11.29;79.50;98264.16;5038307;28;8895;-92
2023/12/11 00:12:37;;;;;;;;;3.00;3.00;;;;;11.28;79.70;98265.16;5037982;28;8926;-90
2023/12/11 00:15:05;;;;;;;;;3.00;3.00;;;;;11.26;79.88;98258.34;5038559;28;9542;-92
2023/12/11 00:17:32;;;;;;;;;2.50;2.00;;;;;11.22;79.77;98271.16;5038580;28;8846;-89
2023/12/11 00:20:01;;;;;;;;;0.00;0.00;;;;;11.22;79.53;98267.69;5038053;28;8848;-91
2023/12/11 00:22:28;;;;;;;;;3.00;3.00;;;;;11.16;80.00;98274.47;5044062;28;8836;-91
2023/12/11 00:24:56;;;;;;;;;0.25;0.25;;;;;11.13;79.67;98274.81;5046954;28;8904;-91
2023/12/11 00:27:25;;;;;;;;;1.50;1.00;;;;;11.14;80.08;98267.69;5049077;28;8894;-91
2023/12/11 00:29:52;;;;;;;;;1.00;1.00;;;;;11.12;79.93;98281.16;5046873;28;8851;-91
2023/12/11 00:32:21;;;;;;;;;1.00;1.00;;;;;11.10;80.12;98272.50;5037779;28;8987;-91
2023/12/11 00:34:49;;;;;;;;;0.00;0.00;;;;;11.09;79.39;98284.13;5038420;28;8840;-91
2023/12/11 00:37:18;;;;;;;;;1.00;1.00;;;;;11.06;79.72;98299.66;5037537;28;8836;-89
2023/12/11 00:39:47;;;;;;;;;0.00;0.00;;;;;11.03;79.50;98283.97;5037927;28;9082;-90
2023/12/11 00:42:15;;;;;;;;;1.00;1.00;;;;;11.01;79.89;98305.44;5038311;28;9002;-89
2023/12/11 00:44:42;;;;;;;;;3.00;1.00;;;;;10.97;80.14;98304.13;5037173;28;8975;-91
2023/12/11 00:47:10;;;;;;;;;0.75;0.75;;;;;10.92;79.56;98303.78;5037295;28;8856;-89
2023/12/11 00:49:38;;;;;;;;;0.00;0.00;;;;;10.88;79.83;98304.25;5037346;28;8840;-91
2023/12/11 00:52:06;;;;;;;;;1.00;1.00;;;;;10.85;79.90;98299.28;5037276;28;8851;-90
2023/12/11 00:54:34;;;;;;;;;3.00;0.75;;;;;10.85;79.82;98300.09;5036736;28;8877;-90
2023/12/11 00:57:01;;;;;;;;;0.00;0.00;;;;;10.82;79.73;98295.09;5037007;28;8860;-91
2023/12/11 00:59:29;;;;;;;;;0.00;0.00;;;;;10.85;80.01;98294.75;5037449;28;8860;-90
2023/12/11 01:01:57;;;;;;;;;1.00;1.00;;;;;10.83;80.16;98291.44;5036633;28;8828;-90
2023/12/11 01:04:26;;;;;;;;;0.50;0.50;;;;;10.79;80.19;98284.78;5037265;28;8864;-89
2023/12/11 01:06:54;;;;;;;;;1.50;1.00;;;;;10.79;80.10;98292.78;5033798;28;8854;-90
2023/12/11 01:09:22;;;;;;;;;0.00;0.00;;;;;10.76;79.86;98294.94;5017372;28;8862;-91
2023/12/11 01:11:49;;;;;;;;;0.00;0.00;;;;;10.74;80.42;98280.94;5017104;28;9270;-91
2023/12/11 01:14:17;;;;;;;;;1.00;0.25;;;;;10.74;79.66;98287.09;5016826;28;8868;-91
2023/12/11 01:16:45;;;;;;;;;0.00;0.00;;;;;10.77;79.70;98285.94;5017086;28;8847;-90
2023/12/11 01:19:12;;;;;;;;;0.00;0.00;;;;;10.74;80.04;98284.44;5017418;28;8857;-91
2023/12/11 01:21:40;;;;;;;;;1.00;1.00;;;;;10.73;80.11;98280.13;5016964;28;8867;-89
2023/12/11 01:24:08;;;;;;;;;0.25;0.25;;;;;10.74;79.73;98284.44;5016920;28;9507;-90
2023/12/11 01:26:36;;;;;;;;;0.75;0.75;;;;;10.77;79.97;98284.09;5016684;28;8850;-90
2023/12/11 01:29:04;;;;;;;;;1.00;0.00;;;;;10.74;79.57;98284.44;5016689;28;8846;-90
2023/12/11 01:31:31;;;;;;;;;2.00;0.50;;;;;10.66;79.73;98300.41;5016806;28;8835;-90
2023/12/11 01:33:59;;;;;;;;;0.75;0.75;;;;;10.63;79.66;98295.38;5016867;28;8846;-92
2023/12/11 01:36:27;;;;;;;;;3.50;3.00;;;;;10.64;80.21;98281.09;5017034;28;8834;-90
2023/12/11 01:38:54;;;;;;;;;3.25;2.50;;;;;10.71;79.68;98290.06;5016185;28;9497;-91
2023/12/11 01:41:23;;;;;;;;;3.00;3.00;;;;;10.74;79.89;98280.94;5017143;28;8862;-90
2023/12/11 01:43:51;;;;;;;;;6.00;4.00;;;;;10.73;79.65;98285.44;5016707;28;8831;-91
2023/12/11 01:46:19;;;;;;;;;0.75;0.75;;;;;10.70;80.03;98288.41;5016713;28;8854;-90
2023/12/11 01:48:46;;;;;;;;;3.00;1.00;;;;;10.72;79.68;98290.94;5016426;28;8854;-90
2023/12/11 01:51:14;;;;;;;;;5.50;2.00;;;;;10.76;80.03;98297.59;5016893;28;8835;-90
2023/12/11 01:53:43;;;;;;;;;1.00;1.00;;;;;10.81;79.34;98292.59;5016505;28;8849;-89
2023/12/11 01:56:10;;;;;;;;;3.00;3.00;;;;;10.89;79.30;98280.16;5016573;28;9540;-91
2023/12/11 01:58:38;;;;;;;;;1.00;0.00;;;;;10.93;79.24;98291.31;5016387;28;8847;-92
2023/12/11 02:01:06;;;;;;;;;0.00;0.00;;;;;10.92;79.16;98282.47;5016484;28;8892;-91
2023/12/11 02:03:34;;;;;;;;;1.00;1.00;;;;;10.91;79.43;98280.81;5016432;28;8843;-91
2023/12/11 02:06:03;;;;;;;;;0.00;0.00;;;;;10.93;79.26;98288.63;5017095;28;8868;-90
2023/12/11 02:08:31;;;;;;;;;1.00;1.00;;;;;10.96;79.56;98278.50;5032961;28;8836;-91
2023/12/11 02:11:00;;;;;;;;;0.75;0.75;;;;;10.95;79.25;98283.97;5036568;28;8869;-91
2023/12/11 02:13:27;;;;;;;;;1.00;1.00;;;;;10.91;79.48;98272.81;5036467;28;8868;-90
2023/12/11 02:15:56;;;;;;;;;0.75;0.75;;;;;10.88;79.29;98273.16;5036132;28;8836;-90
2023/12/11 02:18:25;;;;;;;;;2.00;2.00;;;;;10.84;79.61;98286.97;5036709;28;8832;-91
2023/12/11 02:20:54;;;;;;;;;1.50;1.00;;;;;10.80;79.22;98278.47;5036708;28;8971;-91
2023/12/11 02:23:22;;;;;;;;;3.50;3.50;;;;;10.81;79.46;98271.28;5036043;28;8958;-91
2023/12/11 02:25:49;;;;;;;;;2.00;2.00;;;;;10.84;79.73;98263.81;5035363;28;8829;-91
2023/12/11 02:28:17;;;;;;;;;0.00;0.00;;;;;10.86;79.73;98276.97;5036350;28;8975;-91
2023/12/11 02:30:45;;;;;;;;;3.00;1.00;;;;;10.89;79.79;98260.66;5035476;28;8866;-93
2023/12/11 02:33:13;;;;;;;;;0.00;0.00;;;;;10.89;79.05;98247.34;5035810;28;8872;-91
2023/12/11 02:35:40;;;;;;;;;0.75;0.75;;;;;10.81;79.59;98248.19;5035657;28;8836;-91
2023/12/11 02:38:08;;;;;;;;;1.00;1.00;;;;;10.74;79.41;98255.16;5035580;28;8848;-91
2023/12/11 02:40:36;;;;;;;;;0.00;0.00;;;;;10.67;79.52;98243.50;5036693;28;8869;-90
2023/12/11 02:43:03;;;;;;;;;3.00;1.00;;;;;10.62;79.88;98237.81;5036590;28;8863;-91
2023/12/11 02:45:32;;;;;;;;;3.00;2.50;;;;;10.60;80.09;98242.50;5035093;28;8844;-91
2023/12/11 02:48:02;;;;;;;;;0.00;0.00;;;;;10.59;80.07;98234.66;5037058;28;9606;-91
2023/12/11 02:50:31;;;;;;;;;2.00;2.00;;;;;10.58;79.98;98225.84;5039615;28;9498;-91
2023/12/11 02:52:59;;;;;;;;;1.00;0.00;;;;;10.58;79.77;98220.53;5040999;28;8950;-90
2023/12/11 02:55:26;;;;;;;;;1.50;1.50;;;;;10.60;79.87;98225.66;5040139;28;8836;-91
2023/12/11 02:57:54;;;;;;;;;1.00;1.00;;;;;10.60;79.63;98215.88;5040124;28;8837;-90
2023/12/11 03:00:22;;;;;;;;;2.00;2.00;;;;;10.64;79.45;98232.34;5038847;28;8986;-91
2023/12/11 03:02:48;;;;;;;;;1.00;1.00;;;;;10.70;79.78;98221.03;5039647;28;8875;-91
2023/12/11 03:05:16;;;;;;;;;1.00;0.00;;;;;10.77;79.44;98222.06;5040856;28;8875;-91
2023/12/11 03:07:44;;;;;;;;;0.25;0.25;;;;;10.84;79.02;98223.88;5039480;28;8821;-91
2023/12/11 03:10:12;;;;;;;;;0.25;0.25;;;;;10.87;79.25;98207.59;5039705;28;9569;-92
2023/12/11 03:12:39;;;;;;;;;1.00;1.00;;;;;10.67;79.19;98211.56;5039700;28;8995;-90
2023/12/11 03:15:07;;;;;;;;;0.50;0.25;;;;;10.46;79.61;98200.53;5038241;28;8885;-91
2023/12/11 03:17:35;;;;;;;;;1.00;0.75;;;;;10.32;80.13;98205.69;5038894;28;8959;-91
2023/12/11 03:20:05;;;;;;;;;0.00;0.00;;;;;10.24;80.49;98187.88;5038870;28;8849;-91
2023/12/11 03:22:33;;;;;;;;;3.75;3.25;;;;;10.26;80.58;98191.19;5039165;28;8844;-90
2023/12/11 03:25:00;;;;;;;;;3.25;2.00;;;;;10.28;80.53;98180.38;5038477;28;8837;-91
2023/12/11 03:27:28;;;;;;;;;1.00;1.00;;;;;10.28;80.04;98178.56;5038812;28;9330;-90
2023/12/11 03:29:56;;;;;;;;;0.75;0.75;;;;;10.27;79.87;98171.59;5039235;28;8841;-89
2023/12/11 03:32:24;;;;;;;;;1.50;1.00;;;;;10.25;80.33;98172.75;5039694;28;8837;-90
2023/12/11 03:34:52;;;;;;;;;0.00;0.00;;;;;10.26;80.29;98166.44;5038925;28;8868;-91
2023/12/11 03:37:20;;;;;;;;;0.75;0.75;;;;;10.24;79.90;98169.25;5039699;28;8866;-91
2023/12/11 03:39:48;;;;;;;;;3.25;1.00;;;;;10.17;80.18;98165.56;5040082;28;8852;-90
2023/12/11 03:42:15;;;;;;;;;3.50;2.00;;;;;10.14;79.72;98165.06;5039604;28;8852;-91
2023/12/11 03:44:43;;;;;;;;;3.00;2.50;;;;;10.11;80.28;98166.22;5039575;28;8848;-90
2023/12/11 03:47:11;;;;;;;;;8.00;1.00;;;;;10.14;80.51;98159.75;5038766;28;9525;-89
2023/12/11 03:49:39;;;;;;;;;2.50;2.50;;;;;10.22;80.03;98163.25;5039201;28;8840;-91
2023/12/11 03:52:07;;;;;;;;;0.75;0.75;;;;;10.29;79.64;98169.59;5038662;28;8979;-91
2023/12/11 03:54:35;;;;;;;;;0.50;0.50;;;;;10.34;79.65;98167.28;5039415;28;8844;-91
2023/12/11 03:57:03;;;;;;;;;3.50;2.50;;;;;10.40;79.23;98165.78;5051966;28;8864;-91
2023/12/11 03:59:32;;;;;;;;;1.00;1.00;;;;;10.50;79.41;98166.47;5040446;28;8836;-90
2023/12/11 04:02:00;;;;;;;;;3.00;1.00;;;;;10.53;79.21;98161.63;5039364;28;8829;-91
2023/12/11 04:04:28;;;;;;;;;1.00;0.75;;;;;10.52;79.38;98152.00;5038725;28;8836;-91
2023/12/11 04:06:56;;;;;;;;;0.00;0.00;;;;;10.44;79.02;98159.97;5039063;28;8832;-91
2023/12/11 04:09:23;;;;;;;;;2.50;0.00;;;;;10.31;79.36;98172.09;5038514;28;8852;-90
2023/12/11 04:11:51;;;;;;;;;1.50;1.00;;;;;10.13;79.55;98158.09;5038776;28;8855;-91
2023/12/11 04:14:19;;;;;;;;;0.75;0.00;;;;;10.05;80.38;98152.75;5038280;28;8840;-90
2023/12/11 04:16:46;;;;;;;;;0.25;0.25;;;;;10.00;80.62;98147.03;5037876;28;8874;-91
2023/12/11 04:19:14;;;;;;;;;3.25;1.25;;;;;9.95;80.60;98139.56;5038405;28;8871;-92
2023/12/11 04:21:42;;;;;;;;;0.00;0.00;;;;;9.92;80.38;98139.88;5038461;28;9014;-91
2023/12/11 04:24:10;;;;;;;;;5.50;2.75;;;;;9.92;80.53;98133.72;5039203;28;8863;-92
2023/12/11 04:26:41;;;;;;;;;0.00;0.00;;;;;9.94;80.74;98142.41;5039788;28;8860;-91
2023/12/11 04:29:09;;;;;;;;;0.50;0.00;;;;;9.98;80.30;98138.41;5038685;28;8930;-91
2023/12/11 04:31:36;;;;;;;;;0.50;0.50;;;;;10.05;80.15;98153.59;5037821;28;9486;-89
2023/12/11 04:34:04;;;;;;;;;0.50;0.50;;;;;10.09;79.50;98141.63;5038022;28;8837;-92
2023/12/11 04:36:32;;;;;;;;;0.00;0.00;;;;;10.06;79.78;98133.97;5037735;28;8861;-91
2023/12/11 04:39:00;;;;;;;;;0.75;0.50;;;;;10.00;80.41;98126.63;5037766;28;8841;-90
2023/12/11 04:41:28;;;;;;;;;0.00;0.00;;;;;9.98;80.54;98125.09;5038288;28;8875;-91
2023/12/11 04:43:55;;;;;;;;;0.50;0.50;;;;;9.96;80.65;98129.75;5038817;28;8970;-90
2023/12/11 04:46:24;;;;;;;;;2.00;1.00;;;;;10.00;79.87;98123.94;5037854;28;8829;-91
2023/12/11 04:48:52;;;;;;;;;0.00;0.00;;;;;10.06;80.59;98128.66;5037064;28;8860;-90
2023/12/11 04:51:19;;;;;;;;;0.50;0.00;;;;;10.12;79.64;98121.84;5036878;28;8844;-90
2023/12/11 04:53:47;;;;;;;;;0.50;0.50;;;;;10.17;79.85;98132.84;5036503;28;8856;-90
2023/12/11 04:56:15;;;;;;;;;1.50;1.00;;;;;10.16;79.47;98131.19;5036881;28;8938;-90
2023/12/11 04:58:43;;;;;;;;;1.00;0.00;;;;;10.09;80.21;98119.53;5037164;28;8856;-91
2023/12/11 05:01:11;;;;;;;;;1.00;0.50;;;;;9.99;80.48;98110.81;5037615;28;8844;-91
2023/12/11 05:03:39;;;;;;;;;0.00;0.00;;;;;9.88;80.29;98103.97;5036853;28;9572;-90
2023/12/11 05:06:07;;;;;;;;;0.75;0.75;;;;;9.79;80.50;98107.63;5037698;28;8849;-92
2023/12/11 05:08:34;;;;;;;;;0.00;0.00;;;;;9.74;80.87;98103.78;5036701;28;8825;-91
2023/12/11 05:11:02;;;;;;;;;0.00;0.00;;;;;9.71;80.72;98093.50;5036379;28;8857;-90
2023/12/11 05:13:30;;;;;;;;;1.00;0.00;;;;;9.69;81.11;98096.28;5036552;28;8905;-90
2023/12/11 05:15:58;;;;;;;;;1.00;1.00;;;;;9.66;80.85;98095.78;5037343;28;8844;-91
2023/12/11 05:18:25;;;;;;;;;0.00;0.00;;;;;9.63;81.69;98090.81;5037110;28;8840;-91
2023/12/11 05:20:53;;;;;;;;;0.50;0.50;;;;;9.59;80.86;98090.31;5036355;28;9546;-91
2023/12/11 05:23:21;;;;;;;;;1.50;0.50;;;;;9.57;81.57;98097.56;5036297;28;8832;-91
2023/12/11 05:25:49;;;;;;;;;0.00;0.00;;;;;9.54;81.56;98097.06;5037275;28;8841;-91
2023/12/11 05:28:17;;;;;;;;;0.75;0.25;;;;;9.52;81.69;98091.09;5037495;28;9567;-91
2023/12/11 05:30:45;;;;;;;;;1.00;1.00;;;;;9.48;81.90;98119.78;5037524;28;8844;-91
2023/12/11 05:33:12;;;;;;;;;0.75;0.75;;;;;9.46;81.47;98097.03;5036694;28;8856;-91
2023/12/11 05:35:41;;;;;;;;;0.00;0.00;;;;;9.41;81.99;98102.03;5036785;28;8832;-90
2023/12/11 05:38:09;;;;;;;;;0.00;0.00;;;;;9.33;82.40;98102.00;5036315;28;8855;-90
2023/12/11 05:40:36;;;;;;;;;0.00;0.00;;;;;9.24;82.04;98111.72;5036670;28;8971;-91
2023/12/11 05:43:04;;;;;;;;;0.00;0.00;;;;;9.17;82.13;98112.50;5036746;28;8868;-90
2023/12/11 05:45:32;;;;;;;;;0.50;0.50;;;;;9.10;82.89;98109.66;5037053;28;8833;-91
2023/12/11 05:50:37;;;;;;;;;0.00;0.00;;;;;8.97;82.84;98119.84;5037882;28;8840;-91
2023/12/11 05:53:07;;;;;;;;;0.00;0.00;;;;;8.92;83.22;98118.66;5038406;28;8856;-92
2023/12/11 05:55:35;;;;;;;;;0.00;0.00;;;;;8.87;82.74;98116.50;5039513;28;8848;-92
2023/12/11 05:58:03;;;;;;;;;0.50;0.50;;;;;8.84;83.08;98124.78;5039147;28;8867;-92
2023/12/11 06:00:31;;;;;;;;;0.50;0.50;;;;;8.82;82.98;98104.69;5039426;28;8894;-92
2023/12/11 06:02:59;;;;;;;;;0.00;0.00;;;;;8.80;83.27;98096.06;5039259;28;8844;-91
2023/12/11 06:05:27;;;;;;;;;0.00;0.00;;;;;8.76;83.72;98108.81;5037166;28;8857;-92
2023/12/11 06:07:54;;;;;;;;;0.75;0.50;;;;;8.72;83.44;98109.25;5036847;28;8875;-91
2023/12/11 06:10:22;;;;;;;;;0.00;0.00;;;;;8.68;83.56;98106.06;5036538;28;8849;-91
2023/12/11 06:12:50;;;;;;;;;0.00;0.00;;;;;8.66;83.56;98117.84;5036943;28;9482;-90
2023/12/11 06:15:18;;;;;;;;;0.00;0.00;;;;;8.66;83.98;98113.34;5035357;28;8872;-90
2023/12/11 06:17:45;;;;;;;;;0.00;0.00;;;;;8.67;83.87;98124.81;5036239;28;8875;-89
2023/12/11 06:20:13;;;;;;;;;0.50;0.25;;;;;8.70;84.28;98114.72;5036407;28;8869;-90
2023/12/11 06:22:41;;;;;;;;;3.00;3.00;;;;;8.74;84.00;98113.41;5035497;28;8888;-89
2023/12/11 06:25:09;;;;;;;;;1.00;0.25;;;;;8.80;83.42;98111.97;5036033;28;8867;-90
2023/12/11 06:27:37;;;;;;;;;3.50;3.00;;;;;8.86;83.81;98106.88;5035802;28;8857;-89
2023/12/11 06:30:07;;;;;;;;;0.00;0.00;;;;;8.95;83.54;98119.19;5036654;28;8896;-89
2023/12/11 06:32:34;;;;;;;;;0.25;0.25;;;;;9.07;83.30;98112.63;5036448;28;8869;-89
2023/12/11 06:35:02;;;;;;;;;0.25;0.25;;;;;9.19;83.78;98118.50;5034546;28;8849;-89
2023/12/11 06:37:30;;;;;;;;;0.00;0.00;;;;;9.31;82.79;98118.06;5034469;28;8856;-89
2023/12/11 06:39:58;;;;;;;;;1.00;1.00;;;;;9.43;82.66;98111.47;5033811;28;8871;-88
2023/12/11 06:42:26;;;;;;;;;2.50;1.00;;;;;9.56;82.05;98116.34;5033721;28;8849;-89
2023/12/11 06:44:54;;;;;;;;;3.75;3.75;;;;;9.64;82.50;98114.53;5033175;28;8856;-90
2023/12/11 06:47:22;;;;;;;;;0.00;0.00;;;;;9.71;82.11;98112.09;5032878;28;8881;-89
2023/12/11 06:49:49;;;;;;;;;0.00;0.00;;;;;9.79;81.90;98112.13;5032255;28;9054;-90
2023/12/11 06:52:19;;;;;;;;;4.00;1.00;;;;;9.86;82.20;98118.44;5032714;28;9257;-90
2023/12/11 06:54:47;;;;;;;;;1.00;1.00;;;;;9.91;81.44;98108.13;5033069;28;8864;-89
2023/12/11 06:57:14;;;;;;;;;1.50;1.00;;;;;9.93;81.41;98101.66;5033239;28;8881;-90
2023/12/11 06:59:42;;;;;;;;;0.25;0.25;;;;;9.98;81.66;98102.03;5032649;28;8943;-90
2023/12/11 07:02:10;;;;;;;;;0.00;0.00;;;;;10.03;81.30;98097.06;5032117;28;8883;-89
2023/12/11 07:04:38;;;;;;;;;2.00;0.00;;;;;10.04;81.64;98104.06;5032306;28;8981;-89
2023/12/11 07:07:06;;;;;;;;;0.00;0.00;;;;;9.97;81.79;98095.03;5032892;28;8853;-90
2023/12/11 07:09:34;;;;;;;;;0.00;0.00;;;;;9.83;82.13;98105.47;5033110;28;8872;-89
2023/12/11 07:12:04;;;;;;;;;1.00;1.00;;;;;9.73;82.50;98097.63;5032288;28;8951;-89
2023/12/11 07:14:32;;;;;;;;;2.50;2.50;;;;;9.66;82.83;98091.28;5033488;28;8859;-90
2023/12/11 07:16:59;;;;;;;;;3.00;2.00;;;;;9.64;82.83;98101.25;5033734;28;8833;-89
2023/12/11 07:19:27;;;;;;;;;1.00;1.00;;;;;9.63;82.88;98102.25;5034180;28;8863;-88
2023/12/11 07:21:55;;;;;;;;;1.00;1.00;;;;;9.62;83.19;98108.56;5032067;28;8880;-89
2023/12/11 07:24:23;;;;;;;;;2.00;1.25;;;;;9.64;82.85;98100.44;5035465;28;9556;-90
2023/12/11 07:26:51;;;;;;;;;0.00;0.00;;;;;9.60;82.75;98097.28;5037929;28;8982;-90
2023/12/11 07:29:19;;;;;;;;;0.25;0.25;;;;;9.58;82.75;98098.41;5034045;28;8868;-89
2023/12/11 07:31:47;;;;;;;;;1.25;1.25;;;;;9.55;83.06;98123.47;5033496;28;8848;-90
2023/12/11 07:34:15;;;;;;;;;1.00;1.00;;;;;9.54;82.91;98111.19;5034809;28;9639;-90
2023/12/11 07:36:44;;;;;;;;;1.50;0.25;;;;;9.54;83.13;98110.34;5037357;28;8837;-89
2023/12/11 07:39:12;;;;;;;;;1.00;0.50;;;;;9.52;83.53;98099.06;5035665;28;8845;-88
2023/12/11 07:41:40;;;;;;;;;3.50;1.00;;;;;9.48;83.15;98098.53;5035371;28;8933;-89
2023/12/11 07:44:07;;;;;;;;;3.25;1.00;;;;;9.46;83.11;98097.88;5035086;28;8848;-89
2023/12/11 07:46:35;;;;;;;;;0.00;0.00;;;;;9.44;83.61;98075.97;5036443;28;8871;-89
2023/12/11 07:49:05;;;;;;;;;0.00;0.00;;;;;9.44;83.87;98086.59;5035010;28;9305;-89
2023/12/11 07:51:33;;;;;;;;;1.50;1.50;;;;;9.45;83.56;98095.38;5035309;28;8840;-88
2023/12/11 07:54:01;;;;;;;;;5.00;4.50;;;;;9.46;83.33;98092.56;5037018;28;8844;-88
2023/12/11 07:56:29;;;;;;;;;0.75;0.75;;;;;9.51;83.71;98092.94;5037428;28;8934;-87
2023/12/11 07:58:58;;;;;;;;;1.00;1.00;;;;;9.58;83.39;98091.25;5037147;28;9533;-90
2023/12/11 08:01:25;;;;;;;;;1.00;1.00;;;;;9.66;83.38;98096.59;5040056;28;8994;-89
2023/12/11 08:03:53;;;;;;;;;1.00;1.00;;;;;9.74;83.10;98104.63;5036500;28;8939;-88
2023/12/11 08:06:21;;;;;;;;;1.00;1.00;;;;;9.75;83.08;98106.28;5036432;28;8832;-88
2023/12/11 08:08:49;;;;;;;;;3.00;2.00;;;;;9.70;82.94;98097.97;5034948;28;8905;-88
2023/12/11 08:11:17;;;;;;;;;1.50;1.50;;;;;9.63;82.94;98104.09;5034634;28;8840;-88
2023/12/11 08:13:45;;;;;;;;;0.50;0.50;;;;;9.54;83.15;98107.69;5034615;28;8886;-88
2023/12/11 08:16:13;;;;;;;;;0.75;0.50;;;;;9.47;83.39;98104.84;5034465;28;9277;-88
2023/12/11 08:18:42;;;;;;;;;2.00;0.50;;;;;9.43;83.45;98113.31;5034894;28;8840;-88
2023/12/11 08:21:10;;;;;;;;;1.50;1.50;;;;;9.38;84.03;98105.81;5035207;28;9518;-88
2023/12/11 08:23:38;;;;;;;;;0.00;0.00;;;;;9.35;83.84;98111.44;5036012;28;8872;-89
2023/12/11 08:26:05;;;;;;;;;0.50;0.00;;;;;9.32;84.35;98116.22;5035650;28;8856;-88
2023/12/11 08:28:33;;;;;;;;;0.00;0.00;;;;;9.31;84.20;98115.41;5034061;28;8979;-89
2023/12/11 08:31:03;;;;;;;;;0.00;0.00;;;;;9.31;84.41;98117.22;5034822;28;8848;-88
2023/12/11 08:33:31;;;;;;;;;0.00;0.00;;;;;9.28;84.24;98115.72;5035009;28;8974;-88
2023/12/11 08:35:58;;;;;;;;;1.00;1.00;;;;;9.25;84.19;98116.03;5035309;28;9571;-89
2023/12/11 08:38:26;;;;;;;;;1.00;1.00;;;;;9.23;84.50;98110.06;5035627;28;8844;-89
2023/12/11 08:40:54;;;;;;;;;0.50;0.50;;;;;9.22;84.23;98124.34;5034766;28;9133;-89
2023/12/11 08:43:22;;;;;;;;;0.75;0.00;;;;;9.21;84.42;98130.66;5035642;28;8859;-90
2023/12/11 08:45:50;;;;;;;;;1.00;1.00;;;;;9.21;84.79;98117.38;5035358;28;8856;-89
2023/12/11 08:48:18;;;;;;;;;0.00;0.00;;;;;9.21;84.67;98133.31;5035507;28;9533;-88
2023/12/11 08:50:47;;;;;;;;;0.00;0.00;;;;;9.21;84.86;98132.44;5036676;28;8836;-88
2023/12/11 08:53:15;;;;;;;;;0.00;0.00;;;;;9.21;84.53;98127.16;5035926;28;8937;-87
2023/12/11 08:55:43;;;;;;;;;0.00;0.00;;;;;9.23;84.81;98130.47;5035500;28;8856;-87
2023/12/11 08:58:11;;;;;;;;;0.00;0.00;;;;;9.23;84.49;98136.63;5035211;28;8972;-88
2023/12/11 09:00:39;;;;;;;;;0.25;0.25;;;;;9.24;84.62;98125.00;5036274;28;8844;-87
2023/12/11 09:03:07;;;;;;;;;0.00;0.00;;;;;9.26;84.38;98135.47;5035511;28;8867;-88
2023/12/11 09:05:35;;;;;;;;;3.75;1.00;;;;;9.26;85.02;98146.09;5035483;28;9572;-89
2023/12/11 09:08:04;;;;;;;;;1.00;1.00;;;;;9.28;84.65;98138.81;5035293;28;9364;-88
2023/12/11 09:10:32;;;;;;;;;0.25;0.00;;;;;9.29;85.17;98140.47;5035868;28;8857;-88
2023/12/11 09:13:00;;;;;;;;;0.75;0.00;;;;;9.29;84.61;98146.63;5035694;28;8871;-88
2023/12/11 09:15:28;;;;;;;;;0.75;0.75;;;;;9.31;84.72;98139.31;5035029;28;8914;-88
2023/12/11 09:17:56;;;;;;;;;1.00;0.50;;;;;9.32;84.69;98146.28;5035619;28;8864;-88
2023/12/11 09:20:25;;;;;;;;;0.25;0.25;;;;;9.34;84.96;98149.63;5035250;28;8864;-88
2023/12/11 09:22:53;;;;;;;;;0.00;0.00;;;;;9.35;85.12;98156.59;5034928;28;8871;-88
2023/12/11 09:25:21;;;;;;;;;0.00;0.00;;;;;9.37;85.21;98151.13;5034011;28;8856;-88
2023/12/11 09:27:49;;;;;;;;;0.00;0.00;;;;;9.37;85.02;98149.31;5034228;28;8855;-88
2023/12/11 09:30:17;;;;;;;;;0.00;0.00;;;;;9.38;85.22;98150.13;5034600;28;8836;-87
2023/12/11 09:32:45;;;;;;;;;2.50;2.00;;;;;9.41;85.27;98157.81;5034008;28;8852;-89
2023/12/11 09:35:13;;;;;;;;;0.00;0.00;;;;;9.40;85.04;98162.28;5034308;28;8864;-88
2023/12/11 09:37:41;;;;;;;;;0.50;0.50;;;;;9.42;85.29;98168.25;5034590;28;8903;-88
2023/12/11 09:40:10;;;;;;;;;0.00;0.00;;;;;9.47;85.15;98173.09;5034373;28;9054;-88
2023/12/11 09:42:38;;;;;;;;;1.75;1.75;;;;;9.49;85.26;98161.31;5035429;28;8853;-87
2023/12/11 09:45:06;;;;;;;;;1.00;1.00;;;;;9.56;84.95;98178.28;5035123;28;8883;-88
2023/12/11 09:47:34;;;;;;;;;0.00;0.00;;;;;9.68;84.98;98179.69;5034903;28;8841;-87
2023/12/11 09:50:02;;;;;;;;;0.75;0.50;;;;;9.82;84.81;98175.56;5035001;28;8864;-88
2023/12/11 09:52:31;;;;;;;;;1.00;1.00;;;;;9.91;84.28;98178.09;5035492;28;8983;-88
2023/12/11 09:55:02;;;;;;;;;0.50;0.00;;;;;9.95;83.91;98182.09;5034414;28;8841;-88
2023/12/11 09:57:30;;;;;;;;;1.00;1.00;;;;;9.94;83.96;98198.22;5033457;28;9628;-88
2023/12/11 09:59:58;;;;;;;;;1.00;1.00;;;;;9.89;84.31;98180.09;5034469;28;8856;-87
2023/12/11 10:02:27;;;;;;;;;0.75;0.25;;;;;9.83;84.16;98194.03;5034332;28;8856;-89
2023/12/11 10:04:55;;;;;;;;;1.00;1.00;;;;;9.76;84.25;98203.63;5034431;28;8875;-89
2023/12/11 10:07:23;;;;;;;;;0.00;0.00;;;;;9.69;84.31;98207.06;5034643;28;8874;-88
2023/12/11 10:09:51;;;;;;;;;0.75;0.00;;;;;9.61;84.58;98218.50;5033890;28;8891;-87
2023/12/11 10:12:19;;;;;;;;;1.00;1.00;;;;;9.56;84.80;98218.13;5034685;28;8864;-88
2023/12/11 10:14:47;;;;;;;;;2.00;2.00;;;;;9.54;85.30;98209.50;5033862;28;9359;-88
2023/12/11 10:17:15;;;;;;;;;0.00;0.00;;;;;9.52;85.17;98216.81;5033624;28;8982;-87
2023/12/11 10:19:43;;;;;;;;;1.00;0.25;;;;;9.49;84.94;98238.34;5034280;28;9594;-89
2023/12/11 10:22:12;;;;;;;;;1.50;0.25;;;;;9.49;85.45;98235.69;5033443;28;8855;-88
2023/12/11 10:24:40;;;;;;;;;1.00;1.00;;;;;9.47;85.06;98229.72;5033118;28;8864;-87
2023/12/11 10:27:08;;;;;;;;;1.00;1.00;;;;;9.49;85.08;98238.34;5036374;28;8860;-87
2023/12/11 10:29:36;;;;;;;;;0.00;0.00;;;;;9.48;85.25;98249.16;5033689;28;8979;-89
2023/12/11 10:32:04;;;;;;;;;0.75;0.75;;;;;9.46;85.70;98228.06;5032231;28;8868;-89
2023/12/11 10:34:32;;;;;;;;;1.00;1.00;;;;;9.45;85.20;98234.38;5031282;28;8855;-87
2023/12/11 10:37:00;;;;;;;;;0.50;0.50;;;;;9.42;85.80;98242.63;5032175;28;8848;-88
2023/12/11 10:39:28;;;;;;;;;0.25;0.25;;;;;9.40;85.46;98249.94;5033401;28;8979;-88
2023/12/11 10:41:55;;;;;;;;;0.00;0.00;;;;;9.40;85.91;98238.47;5032130;28;8998;-88
2023/12/11 10:44:24;;;;;;;;;0.00;0.00;;;;;9.35;86.10;98246.91;5033499;28;8938;-89
2023/12/11 10:47:12;;;;;;;;;1.00;0.00;;;;;9.35;85.69;98251.41;5033549;28;9518;-88
2023/12/11 10:49:39;;;;;;;;;1.00;1.00;;;;;9.34;86.21;98253.19;5032794;28;8859;-89
2023/12/11 10:52:07;;;;;;;;;1.00;1.00;;;;;9.33;85.54;98270.13;5033527;28;8848;-87
2023/12/11 10:54:37;;;;;;;;;0.00;0.00;;;;;9.33;85.76;98254.19;5033352;28;9227;-88
2023/12/11 10:57:05;;;;;;;;;3.25;0.50;;;;;9.34;86.09;98261.16;5038319;28;8878;-87
2023/12/11 10:59:34;;;;;;;;;0.00;0.00;;;;;9.35;85.67;98254.88;5035059;28;9502;-88
2023/12/11 11:02:02;;;;;;;;;3.00;0.25;;;;;9.36;86.15;98259.22;5043141;28;8837;-88
2023/12/11 11:04:30;;;;;;;;;0.75;0.75;;;;;9.38;85.99;98273.16;5043560;28;8856;-89
2023/12/11 11:06:58;;;;;;;;;0.00;0.00;;;;;9.40;86.22;98279.16;5039277;28;8967;-88
2023/12/11 11:09:28;;;;;;;;;1.00;1.00;;;;;9.42;85.77;98266.53;5035596;28;9577;-88
2023/12/11 11:11:55;;;;;;;;;0.00;0.00;;;;;9.44;85.90;98272.56;5036415;28;8856;-89
2023/12/11 11:14:24;;;;;;;;;0.00;0.00;;;;;9.47;86.10;98276.69;5034863;28;8859;-89
2023/12/11 11:16:52;;;;;;;;;0.50;0.50;;;;;9.50;85.63;98318.91;5035363;28;8902;-90
2023/12/11 11:19:19;;;;;;;;;1.00;1.00;;;;;9.51;85.79;98281.56;5034529;28;8851;-89
2023/12/11 11:21:47;;;;;;;;;1.50;1.00;;;;;9.52;86.00;98283.22;5034887;28;8861;-88
2023/12/11 11:24:16;;;;;;;;;0.00;0.00;;;;;9.52;85.97;98291.19;5035099;28;9573;-89
2023/12/11 11:26:43;;;;;;;;;0.00;0.00;;;;;9.49;86.08;98296.81;5035208;28;8883;-88
2023/12/11 11:29:11;;;;;;;;;0.25;0.00;;;;;9.47;85.58;98306.75;5036185;28;8921;-88
2023/12/11 11:31:39;;;;;;;;;2.00;0.50;;;;;9.45;85.51;98316.72;5036650;28;8853;-88
2023/12/11 11:34:07;;;;;;;;;1.50;1.50;;;;;9.43;85.95;98313.38;5037078;28;8922;-88
2023/12/11 11:36:35;;;;;;;;;2.50;1.00;;;;;9.42;85.79;98324.97;5037224;28;8844;-89
2023/12/11 11:39:05;;;;;;;;;2.00;2.00;;;;;9.39;85.81;98327.13;5037555;28;8848;-89
2023/12/11 11:41:33;;;;;;;;;3.00;3.00;;;;;9.34;86.27;98343.50;5036981;28;8875;-89
2023/12/11 11:44:04;;;;;;;;;2.50;1.50;;;;;9.30;86.21;98334.19;5034942;28;9023;-89
2023/12/11 11:46:32;;;;;;;;;0.75;0.75;;;;;9.28;86.11;98343.31;5035296;28;8840;-89
2023/12/11 11:48:59;;;;;;;;;1.00;1.00;;;;;9.25;86.14;98344.44;5035172;28;9560;-90
2023/12/11 11:51:31;;;;;;;;;1.00;1.00;;;;;9.22;86.58;98360.69;5034437;28;8933;-89